sensor_id;sensor_type;location;lat;lon;timestamp;P1;durP1;ratioP1;P2;durP2;ratioP2
45842;SDS011;31563;51.744;8.252;2022-11-15T00:01:12;3.47;;;3.17;;
45842;SDS011;31563;51.744;8.252;2022-11-15T00:03:43;3.28;;;2.97;;
45842;SDS011;31563;51.744;8.252;2022-11-15T00:06:11;4.10;;;3.00;;
45842;SDS011;31563;51.744;8.252;2022-11-15T00:08:41;3.30;;;3.00;;
45842;SDS011;31563;51.744;8.252;2022-11-15T00:11:10;3.03;;;2.78;;
45842;SDS011;31563;51.744;8.252;2022-11-15T00:13:39;4.78;;;3.00;;
45842;SDS011;31563;51.744;8.252;2022-11-15T00:16:08;3.05;;;2.75;;
45842;SDS011;31563;51.744;8.252;2022-11-15T00:18:37;3.63;;;3.13;;
45842;SDS011;31563;51.744;8.252;2022-11-15T00:21:06;3.10;;;2.80;;
45842;SDS011;31563;51.744;8.252;2022-11-15T00:23:35;3.10;;;2.80;;
45842;SDS011;31563;51.744;8.252;2022-11-15T00:26:05;5.20;;;2.72;;
45842;SDS011;31563;51.744;8.252;2022-11-15T00:28:34;2.92;;;2.65;;
45842;SDS011;31563;51.744;8.252;2022-11-15T00:31:02;3.80;;;2.97;;
45842;SDS011;31563;51.744;8.252;2022-11-15T00:33:32;3.30;;;3.00;;
45842;SDS011;31563;51.744;8.252;2022-11-15T00:36:01;3.95;;;3.28;;
45842;SDS011;31563;51.744;8.252;2022-11-15T00:40:59;3.50;;;2.78;;
45842;SDS011;31563;51.744;8.252;2022-11-15T00:43:36;2.97;;;2.78;;
45842;SDS011;31563;51.744;8.252;2022-11-15T00:46:06;3.05;;;2.65;;
45842;SDS011;31563;51.744;8.252;2022-11-15T00:48:36;4.00;;;2.78;;
45842;SDS011;31563;51.744;8.252;2022-11-15T00:51:04;2.90;;;2.60;;
45842;SDS011;31563;51.744;8.252;2022-11-15T00:53:32;3.47;;;2.67;;
45842;SDS011;31563;51.744;8.252;2022-11-15T00:56:05;3.30;;;3.00;;
45842;SDS011;31563;51.744;8.252;2022-11-15T00:58:33;3.10;;;2.70;;
45842;SDS011;31563;51.744;8.252;2022-11-15T01:01:09;3.03;;;2.60;;
45842;SDS011;31563;51.744;8.252;2022-11-15T01:03:39;2.90;;;2.70;;
45842;SDS011;31563;51.744;8.252;2022-11-15T01:06:08;3.30;;;2.77;;
45842;SDS011;31563;51.744;8.252;2022-11-15T01:08:38;2.95;;;2.72;;
45842;SDS011;31563;51.744;8.252;2022-11-15T01:11:07;3.22;;;2.70;;
45842;SDS011;31563;51.744;8.252;2022-11-15T01:16:05;3.40;;;2.78;;
45842;SDS011;31563;51.744;8.252;2022-11-15T01:18:37;2.42;;;2.22;;
45842;SDS011;31563;51.744;8.252;2022-11-15T01:21:06;3.20;;;2.90;;
45842;SDS011;31563;51.744;8.252;2022-11-15T01:23:35;2.70;;;2.50;;
45842;SDS011;31563;51.744;8.252;2022-11-15T01:26:05;3.60;;;3.00;;
45842;SDS011;31563;51.744;8.252;2022-11-15T01:28:34;2.92;;;2.60;;
45842;SDS011;31563;51.744;8.252;2022-11-15T01:31:05;2.55;;;2.35;;
45842;SDS011;31563;51.744;8.252;2022-11-15T01:33:37;3.17;;;2.72;;
45842;SDS011;31563;51.744;8.252;2022-11-15T01:36:06;2.58;;;2.38;;
45842;SDS011;31563;51.744;8.252;2022-11-15T01:38:35;3.33;;;2.30;;
45842;SDS011;31563;51.744;8.252;2022-11-15T01:41:04;2.95;;;2.65;;
45842;SDS011;31563;51.744;8.252;2022-11-15T01:43:33;2.92;;;2.63;;
45842;SDS011;31563;51.744;8.252;2022-11-15T01:46:04;3.47;;;2.20;;
45842;SDS011;31563;51.744;8.252;2022-11-15T01:48:44;5.38;;;3.05;;
45842;SDS011;31563;51.744;8.252;2022-11-15T01:51:13;5.60;;;3.13;;
45842;SDS011;31563;51.744;8.252;2022-11-15T01:53:43;5.13;;;2.80;;
45842;SDS011;31563;51.744;8.252;2022-11-15T01:56:15;10.35;;;3.38;;
45842;SDS011;31563;51.744;8.252;2022-11-15T01:58:47;3.70;;;2.58;;
45842;SDS011;31563;51.744;8.252;2022-11-15T02:01:15;3.00;;;2.70;;
45842;SDS011;31563;51.744;8.252;2022-11-15T02:03:45;4.40;;;2.80;;
45842;SDS011;31563;51.744;8.252;2022-11-15T02:06:18;4.78;;;2.67;;
45842;SDS011;31563;51.744;8.252;2022-11-15T02:08:47;5.30;;;2.88;;
45842;SDS011;31563;51.744;8.252;2022-11-15T02:11:16;3.63;;;2.63;;
45842;SDS011;31563;51.744;8.252;2022-11-15T02:13:44;3.50;;;2.53;;
45842;SDS011;31563;51.744;8.252;2022-11-15T02:16:13;3.38;;;2.80;;
45842;SDS011;31563;51.744;8.252;2022-11-15T02:18:52;3.20;;;2.25;;
45842;SDS011;31563;51.744;8.252;2022-11-15T02:21:28;3.17;;;2.60;;
45842;SDS011;31563;51.744;8.252;2022-11-15T02:30:17;3.47;;;2.60;;
45842;SDS011;31563;51.744;8.252;2022-11-15T02:32:50;4.55;;;2.90;;
45842;SDS011;31563;51.744;8.252;2022-11-15T02:35:23;3.35;;;2.55;;
45842;SDS011;31563;51.744;8.252;2022-11-15T02:37:58;3.13;;;2.60;;
45842;SDS011;31563;51.744;8.252;2022-11-15T02:40:34;3.33;;;2.88;;
45842;SDS011;31563;51.744;8.252;2022-11-15T02:43:08;3.38;;;2.38;;
45842;SDS011;31563;51.744;8.252;2022-11-15T02:46:00;3.97;;;2.47;;
45842;SDS011;31563;51.744;8.252;2022-11-15T02:48:34;3.22;;;2.85;;
45842;SDS011;31563;51.744;8.252;2022-11-15T02:51:03;6.93;;;3.05;;
45842;SDS011;31563;51.744;8.252;2022-11-15T02:53:32;4.30;;;2.78;;
45842;SDS011;31563;51.744;8.252;2022-11-15T02:56:00;3.65;;;2.60;;
45842;SDS011;31563;51.744;8.252;2022-11-15T02:58:36;3.70;;;2.88;;
45842;SDS011;31563;51.744;8.252;2022-11-15T03:01:19;3.67;;;2.55;;
45842;SDS011;31563;51.744;8.252;2022-11-15T03:03:59;3.88;;;2.85;;
45842;SDS011;31563;51.744;8.252;2022-11-15T03:06:36;5.45;;;2.80;;
45842;SDS011;31563;51.744;8.252;2022-11-15T03:09:10;2.47;;;2.28;;
45842;SDS011;31563;51.744;8.252;2022-11-15T03:11:49;3.00;;;2.45;;
45842;SDS011;31563;51.744;8.252;2022-11-15T03:14:23;3.20;;;2.33;;
45842;SDS011;31563;51.744;8.252;2022-11-15T03:16:58;3.38;;;2.95;;
45842;SDS011;31563;51.744;8.252;2022-11-15T03:19:33;2.70;;;2.45;;
45842;SDS011;31563;51.744;8.252;2022-11-15T03:22:05;3.22;;;2.85;;
45842;SDS011;31563;51.744;8.252;2022-11-15T03:24:36;5.35;;;2.72;;
45842;SDS011;31563;51.744;8.252;2022-11-15T03:27:05;2.88;;;2.40;;
45842;SDS011;31563;51.744;8.252;2022-11-15T03:29:37;3.65;;;2.63;;
45842;SDS011;31563;51.744;8.252;2022-11-15T03:32:11;3.10;;;2.42;;
45842;SDS011;31563;51.744;8.252;2022-11-15T03:34:43;2.70;;;2.50;;
45842;SDS011;31563;51.744;8.252;2022-11-15T03:37:17;2.63;;;2.40;;
45842;SDS011;31563;51.744;8.252;2022-11-15T03:39:51;2.60;;;2.40;;
45842;SDS011;31563;51.744;8.252;2022-11-15T03:42:21;3.00;;;2.63;;
45842;SDS011;31563;51.744;8.252;2022-11-15T03:44:58;2.90;;;2.20;;
45842;SDS011;31563;51.744;8.252;2022-11-15T03:47:32;2.85;;;2.53;;
45842;SDS011;31563;51.744;8.252;2022-11-15T03:50:04;2.97;;;2.50;;
45842;SDS011;31563;51.744;8.252;2022-11-15T03:52:36;2.85;;;2.55;;
45842;SDS011;31563;51.744;8.252;2022-11-15T03:55:05;2.55;;;2.20;;
45842;SDS011;31563;51.744;8.252;2022-11-15T03:57:36;2.65;;;2.30;;
45842;SDS011;31563;51.744;8.252;2022-11-15T04:00:04;3.35;;;2.33;;
45842;SDS011;31563;51.744;8.252;2022-11-15T04:02:34;3.45;;;2.28;;
45842;SDS011;31563;51.744;8.252;2022-11-15T04:05:03;2.30;;;2.10;;
45842;SDS011;31563;51.744;8.252;2022-11-15T04:07:31;2.65;;;2.17;;
45842;SDS011;31563;51.744;8.252;2022-11-15T04:09:59;2.97;;;2.35;;
45842;SDS011;31563;51.744;8.252;2022-11-15T04:12:32;4.07;;;2.40;;
45842;SDS011;31563;51.744;8.252;2022-11-15T04:15:03;3.00;;;2.65;;
45842;SDS011;31563;51.744;8.252;2022-11-15T04:17:38;4.13;;;2.53;;
45842;SDS011;31563;51.744;8.252;2022-11-15T04:20:09;2.50;;;2.30;;
45842;SDS011;31563;51.744;8.252;2022-11-15T04:22:58;3.28;;;2.33;;
45842;SDS011;31563;51.744;8.252;2022-11-15T04:25:44;3.80;;;2.55;;
45842;SDS011;31563;51.744;8.252;2022-11-15T04:28:13;3.10;;;2.80;;
45842;SDS011;31563;51.744;8.252;2022-11-15T04:30:41;2.40;;;2.20;;
45842;SDS011;31563;51.744;8.252;2022-11-15T04:33:11;2.83;;;2.08;;
45842;SDS011;31563;51.744;8.252;2022-11-15T04:35:39;3.00;;;2.45;;
45842;SDS011;31563;51.744;8.252;2022-11-15T04:38:09;2.30;;;2.10;;
45842;SDS011;31563;51.744;8.252;2022-11-15T04:40:37;2.67;;;2.30;;
45842;SDS011;31563;51.744;8.252;2022-11-15T04:43:05;2.85;;;2.40;;
45842;SDS011;31563;51.744;8.252;2022-11-15T04:45:33;3.28;;;2.67;;
45842;SDS011;31563;51.744;8.252;2022-11-15T04:48:02;2.72;;;2.42;;
45842;SDS011;31563;51.744;8.252;2022-11-15T04:50:31;2.50;;;2.30;;
45842;SDS011;31563;51.744;8.252;2022-11-15T04:52:59;3.42;;;2.28;;
45842;SDS011;31563;51.744;8.252;2022-11-15T04:55:27;2.60;;;2.20;;
45842;SDS011;31563;51.744;8.252;2022-11-15T04:57:58;3.35;;;2.42;;
45842;SDS011;31563;51.744;8.252;2022-11-15T05:00:27;4.00;;;2.10;;
45842;SDS011;31563;51.744;8.252;2022-11-15T05:02:56;3.38;;;2.28;;
45842;SDS011;31563;51.744;8.252;2022-11-15T05:05:43;2.40;;;2.08;;
45842;SDS011;31563;51.744;8.252;2022-11-15T05:08:11;3.72;;;2.55;;
45842;SDS011;31563;51.744;8.252;2022-11-15T05:10:39;3.00;;;2.40;;
45842;SDS011;31563;51.744;8.252;2022-11-15T05:13:07;2.47;;;2.13;;
45842;SDS011;31563;51.744;8.252;2022-11-15T05:15:35;3.13;;;2.30;;
45842;SDS011;31563;51.744;8.252;2022-11-15T05:18:04;2.60;;;2.40;;
45842;SDS011;31563;51.744;8.252;2022-11-15T05:20:32;2.65;;;2.33;;
45842;SDS011;31563;51.744;8.252;2022-11-15T05:23:01;4.68;;;3.47;;
45842;SDS011;31563;51.744;8.252;2022-11-15T05:25:29;3.45;;;2.97;;
45842;SDS011;31563;51.744;8.252;2022-11-15T05:27:58;4.20;;;2.58;;
45842;SDS011;31563;51.744;8.252;2022-11-15T05:30:26;4.03;;;2.72;;
45842;SDS011;31563;51.744;8.252;2022-11-15T05:32:54;2.70;;;2.13;;
45842;SDS011;31563;51.744;8.252;2022-11-15T05:35:25;3.42;;;2.38;;
45842;SDS011;31563;51.744;8.252;2022-11-15T05:37:57;4.57;;;3.00;;
45842;SDS011;31563;51.744;8.252;2022-11-15T05:40:27;2.40;;;2.08;;
45842;SDS011;31563;51.744;8.252;2022-11-15T05:42:57;3.38;;;2.42;;
45842;SDS011;31563;51.744;8.252;2022-11-15T05:45:29;3.00;;;2.38;;
45842;SDS011;31563;51.744;8.252;2022-11-15T05:47:58;3.73;;;2.47;;
45842;SDS011;31563;51.744;8.252;2022-11-15T05:50:32;4.63;;;4.10;;
45842;SDS011;31563;51.744;8.252;2022-11-15T05:53:00;11.35;;;6.88;;
45842;SDS011;31563;51.744;8.252;2022-11-15T05:55:32;9.60;;;6.53;;
45842;SDS011;31563;51.744;8.252;2022-11-15T05:58:00;8.07;;;6.32;;
45842;SDS011;31563;51.744;8.252;2022-11-15T06:00:28;6.60;;;3.88;;
45842;SDS011;31563;51.744;8.252;2022-11-15T06:02:57;6.38;;;4.40;;
45842;SDS011;31563;51.744;8.252;2022-11-15T06:05:25;8.02;;;4.85;;
45842;SDS011;31563;51.744;8.252;2022-11-15T06:07:56;8.40;;;5.00;;
45842;SDS011;31563;51.744;8.252;2022-11-15T06:10:25;5.60;;;5.03;;
45842;SDS011;31563;51.744;8.252;2022-11-15T06:12:57;6.18;;;5.50;;
45842;SDS011;31563;51.744;8.252;2022-11-15T06:15:26;6.10;;;4.78;;
45842;SDS011;31563;51.744;8.252;2022-11-15T06:17:55;6.95;;;4.72;;
45842;SDS011;31563;51.744;8.252;2022-11-15T06:20:24;5.70;;;4.63;;
45842;SDS011;31563;51.744;8.252;2022-11-15T06:22:55;10.73;;;4.85;;
45842;SDS011;31563;51.744;8.252;2022-11-15T06:25:25;8.50;;;5.07;;
45842;SDS011;31563;51.744;8.252;2022-11-15T06:27:53;8.15;;;5.05;;
45842;SDS011;31563;51.744;8.252;2022-11-15T06:30:24;7.50;;;5.47;;
45842;SDS011;31563;51.744;8.252;2022-11-15T06:32:58;8.38;;;5.53;;
45842;SDS011;31563;51.744;8.252;2022-11-15T06:35:27;8.13;;;5.55;;
45842;SDS011;31563;51.744;8.252;2022-11-15T06:37:57;9.85;;;6.20;;
45842;SDS011;31563;51.744;8.252;2022-11-15T06:40:30;7.82;;;5.15;;
45842;SDS011;31563;51.744;8.252;2022-11-15T06:43:01;7.10;;;5.20;;
45842;SDS011;31563;51.744;8.252;2022-11-15T06:45:30;8.98;;;5.05;;
45842;SDS011;31563;51.744;8.252;2022-11-15T06:47:59;7.60;;;5.05;;
45842;SDS011;31563;51.744;8.252;2022-11-15T06:50:27;7.93;;;6.72;;
45842;SDS011;31563;51.744;8.252;2022-11-15T06:52:55;9.15;;;6.20;;
45842;SDS011;31563;51.744;8.252;2022-11-15T06:55:28;7.95;;;6.40;;
45842;SDS011;31563;51.744;8.252;2022-11-15T06:57:56;7.13;;;6.43;;
45842;SDS011;31563;51.744;8.252;2022-11-15T07:00:25;6.80;;;6.10;;
45842;SDS011;31563;51.744;8.252;2022-11-15T07:02:54;7.63;;;6.50;;
45842;SDS011;31563;51.744;8.252;2022-11-15T07:05:22;7.28;;;5.03;;
45842;SDS011;31563;51.744;8.252;2022-11-15T07:07:51;6.03;;;5.43;;
45842;SDS011;31563;51.744;8.252;2022-11-15T07:10:20;7.80;;;5.13;;
45842;SDS011;31563;51.744;8.252;2022-11-15T07:12:50;6.75;;;5.13;;
45842;SDS011;31563;51.744;8.252;2022-11-15T07:15:21;6.93;;;5.20;;
45842;SDS011;31563;51.744;8.252;2022-11-15T07:17:51;6.50;;;5.47;;
45842;SDS011;31563;51.744;8.252;2022-11-15T07:20:21;6.20;;;5.30;;
45842;SDS011;31563;51.744;8.252;2022-11-15T07:22:49;7.65;;;5.07;;
45842;SDS011;31563;51.744;8.252;2022-11-15T07:25:17;6.57;;;5.07;;
45842;SDS011;31563;51.744;8.252;2022-11-15T07:27:53;5.32;;;4.82;;
45842;SDS011;31563;51.744;8.252;2022-11-15T07:30:22;5.00;;;4.32;;
45842;SDS011;31563;51.744;8.252;2022-11-15T07:32:52;5.65;;;4.45;;
45842;SDS011;31563;51.744;8.252;2022-11-15T07:35:22;6.90;;;4.40;;
45842;SDS011;31563;51.744;8.252;2022-11-15T07:37:54;5.32;;;4.47;;
45842;SDS011;31563;51.744;8.252;2022-11-15T07:40:23;6.20;;;4.00;;
45842;SDS011;31563;51.744;8.252;2022-11-15T07:42:52;4.53;;;4.10;;
45842;SDS011;31563;51.744;8.252;2022-11-15T07:45:20;6.50;;;4.00;;
45842;SDS011;31563;51.744;8.252;2022-11-15T07:47:49;5.53;;;3.97;;
45842;SDS011;31563;51.744;8.252;2022-11-15T07:50:17;5.72;;;4.55;;
45842;SDS011;31563;51.744;8.252;2022-11-15T07:52:47;6.03;;;3.63;;
45842;SDS011;31563;51.744;8.252;2022-11-15T07:55:20;4.57;;;3.88;;
45842;SDS011;31563;51.744;8.252;2022-11-15T07:57:48;6.65;;;4.25;;
45842;SDS011;31563;51.744;8.252;2022-11-15T08:00:17;5.35;;;3.58;;
45842;SDS011;31563;51.744;8.252;2022-11-15T08:02:45;4.75;;;4.00;;
45842;SDS011;31563;51.744;8.252;2022-11-15T08:05:14;6.97;;;3.70;;
45842;SDS011;31563;51.744;8.252;2022-11-15T08:07:42;6.00;;;3.47;;
45842;SDS011;31563;51.744;8.252;2022-11-15T08:10:11;8.02;;;4.10;;
45842;SDS011;31563;51.744;8.252;2022-11-15T08:12:40;4.38;;;3.83;;
45842;SDS011;31563;51.744;8.252;2022-11-15T08:15:08;6.60;;;3.60;;
45842;SDS011;31563;51.744;8.252;2022-11-15T08:17:37;6.65;;;3.42;;
45842;SDS011;31563;51.744;8.252;2022-11-15T08:20:05;5.63;;;3.80;;
45842;SDS011;31563;51.744;8.252;2022-11-15T08:22:34;4.97;;;3.20;;
45842;SDS011;31563;51.744;8.252;2022-11-15T08:25:03;5.55;;;3.15;;
45842;SDS011;31563;51.744;8.252;2022-11-15T08:27:33;5.22;;;3.40;;
45842;SDS011;31563;51.744;8.252;2022-11-15T08:30:01;7.15;;;3.30;;
45842;SDS011;31563;51.744;8.252;2022-11-15T08:32:30;6.20;;;3.85;;
45842;SDS011;31563;51.744;8.252;2022-11-15T08:34:58;4.35;;;2.97;;
45842;SDS011;31563;51.744;8.252;2022-11-15T08:37:26;6.20;;;3.40;;
45842;SDS011;31563;51.744;8.252;2022-11-15T08:39:55;3.75;;;3.35;;
45842;SDS011;31563;51.744;8.252;2022-11-15T08:42:23;4.60;;;2.90;;
45842;SDS011;31563;51.744;8.252;2022-11-15T08:44:52;5.60;;;3.33;;
45842;SDS011;31563;51.744;8.252;2022-11-15T08:47:20;3.70;;;3.33;;
45842;SDS011;31563;51.744;8.252;2022-11-15T08:49:49;4.25;;;2.80;;
45842;SDS011;31563;51.744;8.252;2022-11-15T08:52:17;5.45;;;3.08;;
45842;SDS011;31563;51.744;8.252;2022-11-15T08:54:45;4.70;;;3.17;;
45842;SDS011;31563;51.744;8.252;2022-11-15T08:57:13;4.20;;;3.08;;
45842;SDS011;31563;51.744;8.252;2022-11-15T08:59:42;4.95;;;2.90;;
45842;SDS011;31563;51.744;8.252;2022-11-15T09:02:13;4.85;;;2.75;;
45842;SDS011;31563;51.744;8.252;2022-11-15T09:04:41;2.80;;;2.50;;
45842;SDS011;31563;51.744;8.252;2022-11-15T09:07:10;3.60;;;2.55;;
45842;SDS011;31563;51.744;8.252;2022-11-15T09:09:39;3.85;;;2.80;;
45842;SDS011;31563;51.744;8.252;2022-11-15T09:12:07;3.58;;;2.70;;
45842;SDS011;31563;51.744;8.252;2022-11-15T09:14:36;3.90;;;2.53;;
45842;SDS011;31563;51.744;8.252;2022-11-15T09:17:06;4.03;;;2.42;;
45842;SDS011;31563;51.744;8.252;2022-11-15T09:19:37;2.72;;;2.47;;
45842;SDS011;31563;51.744;8.252;2022-11-15T09:22:05;3.03;;;2.40;;
45842;SDS011;31563;51.744;8.252;2022-11-15T09:24:34;3.75;;;2.80;;
45842;SDS011;31563;51.744;8.252;2022-11-15T09:27:02;2.67;;;2.30;;
45842;SDS011;31563;51.744;8.252;2022-11-15T09:29:31;2.50;;;2.30;;
45842;SDS011;31563;51.744;8.252;2022-11-15T09:31:59;4.03;;;2.70;;
45842;SDS011;31563;51.744;8.252;2022-11-15T09:34:27;3.85;;;2.70;;
45842;SDS011;31563;51.744;8.252;2022-11-15T09:36:56;7.18;;;2.50;;
45842;SDS011;31563;51.744;8.252;2022-11-15T09:39:24;2.45;;;2.15;;
45842;SDS011;31563;51.744;8.252;2022-11-15T09:42:02;4.13;;;2.95;;
45842;SDS011;31563;51.744;8.252;2022-11-15T09:44:49;3.45;;;2.50;;
45842;SDS011;31563;51.744;8.252;2022-11-15T09:47:40;2.97;;;2.20;;
45842;SDS011;31563;51.744;8.252;2022-11-15T09:50:38;3.13;;;2.28;;
45842;SDS011;31563;51.744;8.252;2022-11-15T09:53:14;3.22;;;2.13;;
45842;SDS011;31563;51.744;8.252;2022-11-15T09:56:11;3.35;;;2.35;;
45842;SDS011;31563;51.744;8.252;2022-11-15T09:58:44;2.83;;;1.98;;
45842;SDS011;31563;51.744;8.252;2022-11-15T10:01:23;2.90;;;2.08;;
45842;SDS011;31563;51.744;8.252;2022-11-15T10:04:04;2.38;;;1.70;;
45842;SDS011;31563;51.744;8.252;2022-11-15T10:06:38;3.10;;;1.73;;
45842;SDS011;31563;51.744;8.252;2022-11-15T10:09:13;2.63;;;1.90;;
45842;SDS011;31563;51.744;8.252;2022-11-15T10:11:49;1.70;;;1.58;;
45842;SDS011;31563;51.744;8.252;2022-11-15T10:14:18;2.20;;;1.90;;
45842;SDS011;31563;51.744;8.252;2022-11-15T10:17:13;2.30;;;1.98;;
45842;SDS011;31563;51.744;8.252;2022-11-15T10:20:13;1.90;;;1.70;;
45842;SDS011;31563;51.744;8.252;2022-11-15T10:22:47;1.92;;;1.83;;
45842;SDS011;31563;51.744;8.252;2022-11-15T10:25:21;1.83;;;1.45;;
45842;SDS011;31563;51.744;8.252;2022-11-15T10:27:52;1.70;;;1.58;;
45842;SDS011;31563;51.744;8.252;2022-11-15T10:30:22;2.22;;;1.85;;
45842;SDS011;31563;51.744;8.252;2022-11-15T10:32:57;2.95;;;1.80;;
45842;SDS011;31563;51.744;8.252;2022-11-15T10:35:26;2.63;;;2.03;;
45842;SDS011;31563;51.744;8.252;2022-11-15T10:38:04;1.90;;;1.50;;
45842;SDS011;31563;51.744;8.252;2022-11-15T10:40:35;1.85;;;1.40;;
45842;SDS011;31563;51.744;8.252;2022-11-15T10:43:05;1.67;;;1.25;;
45842;SDS011;31563;51.744;8.252;2022-11-15T10:45:41;2.05;;;1.83;;
45842;SDS011;31563;51.744;8.252;2022-11-15T10:48:23;1.80;;;1.40;;
45842;SDS011;31563;51.744;8.252;2022-11-15T10:50:52;2.47;;;1.20;;
45842;SDS011;31563;51.744;8.252;2022-11-15T10:53:31;1.63;;;1.45;;
45842;SDS011;31563;51.744;8.252;2022-11-15T10:56:05;2.35;;;1.50;;
45842;SDS011;31563;51.744;8.252;2022-11-15T10:58:37;1.85;;;1.30;;
45842;SDS011;31563;51.744;8.252;2022-11-15T11:01:11;1.83;;;1.40;;
45842;SDS011;31563;51.744;8.252;2022-11-15T11:03:42;2.58;;;1.48;;
45842;SDS011;31563;51.744;8.252;2022-11-15T11:06:12;1.40;;;1.30;;
45842;SDS011;31563;51.744;8.252;2022-11-15T11:08:52;1.13;;;0.98;;
45842;SDS011;31563;51.744;8.252;2022-11-15T11:11:24;2.03;;;1.45;;
45842;SDS011;31563;51.744;8.252;2022-11-15T11:13:52;1.30;;;0.90;;
45842;SDS011;31563;51.744;8.252;2022-11-15T11:16:34;1.88;;;1.40;;
45842;SDS011;31563;51.744;8.252;2022-11-15T11:25:02;1.52;;;1.08;;
45842;SDS011;31563;51.744;8.252;2022-11-15T11:27:43;2.28;;;1.45;;
45842;SDS011;31563;51.744;8.252;2022-11-15T11:30:23;1.67;;;1.23;;
45842;SDS011;31563;51.744;8.252;2022-11-15T11:35:35;1.02;;;0.80;;
45842;SDS011;31563;51.744;8.252;2022-11-15T11:38:15;1.05;;;0.95;;
45842;SDS011;31563;51.744;8.252;2022-11-15T11:40:54;1.30;;;0.90;;
45842;SDS011;31563;51.744;8.252;2022-11-15T11:43:33;1.98;;;0.90;;
45842;SDS011;31563;51.744;8.252;2022-11-15T11:46:13;0.90;;;0.70;;
45842;SDS011;31563;51.744;8.252;2022-11-15T11:48:51;1.55;;;0.88;;
45842;SDS011;31563;51.744;8.252;2022-11-15T11:51:25;1.30;;;1.10;;
45842;SDS011;31563;51.744;8.252;2022-11-15T11:53:58;1.25;;;0.80;;
45842;SDS011;31563;51.744;8.252;2022-11-15T11:56:31;1.20;;;0.98;;
45842;SDS011;31563;51.744;8.252;2022-11-15T11:59:06;1.30;;;0.82;;
45842;SDS011;31563;51.744;8.252;2022-11-15T12:01:41;1.50;;;0.90;;
45842;SDS011;31563;51.744;8.252;2022-11-15T12:04:12;1.20;;;0.90;;
45842;SDS011;31563;51.744;8.252;2022-11-15T12:06:45;1.42;;;0.90;;
45842;SDS011;31563;51.744;8.252;2022-11-15T12:09:19;1.00;;;0.70;;
45842;SDS011;31563;51.744;8.252;2022-11-15T12:11:54;1.00;;;0.80;;
45842;SDS011;31563;51.744;8.252;2022-11-15T12:14:32;0.90;;;0.73;;
45842;SDS011;31563;51.744;8.252;2022-11-15T12:17:03;1.35;;;1.08;;
45842;SDS011;31563;51.744;8.252;2022-11-15T12:19:31;1.45;;;0.90;;
45842;SDS011;31563;51.744;8.252;2022-11-15T12:22:03;1.30;;;1.00;;
45842;SDS011;31563;51.744;8.252;2022-11-15T12:24:37;1.15;;;0.60;;
45842;SDS011;31563;51.744;8.252;2022-11-15T12:27:12;0.80;;;0.70;;
45842;SDS011;31563;51.744;8.252;2022-11-15T12:29:53;0.90;;;0.70;;
45842;SDS011;31563;51.744;8.252;2022-11-15T12:32:25;0.95;;;0.80;;
45842;SDS011;31563;51.744;8.252;2022-11-15T12:34:56;0.98;;;0.60;;
45842;SDS011;31563;51.744;8.252;2022-11-15T12:40:23;1.10;;;0.70;;
45842;SDS011;31563;51.744;8.252;2022-11-15T12:43:00;1.67;;;0.80;;
45842;SDS011;31563;51.744;8.252;2022-11-15T12:45:54;0.60;;;0.60;;
45842;SDS011;31563;51.744;8.252;2022-11-15T12:51:16;0.60;;;0.50;;
45842;SDS011;31563;51.744;8.252;2022-11-15T12:53:47;0.95;;;0.80;;
45842;SDS011;31563;51.744;8.252;2022-11-15T12:56:21;1.13;;;0.70;;
45842;SDS011;31563;51.744;8.252;2022-11-15T12:58:51;0.70;;;0.60;;
45842;SDS011;31563;51.744;8.252;2022-11-15T13:04:28;0.88;;;0.60;;
45842;SDS011;31563;51.744;8.252;2022-11-15T13:06:59;0.63;;;0.52;;
45842;SDS011;31563;51.744;8.252;2022-11-15T13:18:29;1.05;;;0.50;;
45842;SDS011;31563;51.744;8.252;2022-11-15T13:21:01;0.93;;;0.60;;
45842;SDS011;31563;51.744;8.252;2022-11-15T13:23:53;1.50;;;0.75;;
45842;SDS011;31563;51.744;8.252;2022-11-15T13:26:22;1.05;;;0.60;;
45842;SDS011;31563;51.744;8.252;2022-11-15T13:28:51;1.90;;;0.88;;
45842;SDS011;31563;51.744;8.252;2022-11-15T13:31:25;0.95;;;0.63;;
45842;SDS011;31563;51.744;8.252;2022-11-15T13:33:59;1.73;;;0.50;;
45842;SDS011;31563;51.744;8.252;2022-11-15T13:36:49;1.35;;;0.50;;
45842;SDS011;31563;51.744;8.252;2022-11-15T13:39:25;0.80;;;0.40;;
45842;SDS011;31563;51.744;8.252;2022-11-15T13:41:54;0.70;;;0.57;;
45842;SDS011;31563;51.744;8.252;2022-11-15T13:44:24;0.82;;;0.50;;
45842;SDS011;31563;51.744;8.252;2022-11-15T13:47:03;1.52;;;0.50;;
45842;SDS011;31563;51.744;8.252;2022-11-15T13:49:34;1.45;;;0.60;;
45842;SDS011;31563;51.744;8.252;2022-11-15T13:52:04;1.40;;;0.50;;
45842;SDS011;31563;51.744;8.252;2022-11-15T13:54:35;0.95;;;0.50;;
45842;SDS011;31563;51.744;8.252;2022-11-15T13:57:10;1.17;;;0.52;;
45842;SDS011;31563;51.744;8.252;2022-11-15T13:59:44;3.63;;;0.60;;
45842;SDS011;31563;51.744;8.252;2022-11-15T14:02:14;4.70;;;0.60;;
45842;SDS011;31563;51.744;8.252;2022-11-15T14:04:48;1.33;;;0.75;;
45842;SDS011;31563;51.744;8.252;2022-11-15T14:07:19;3.80;;;0.90;;
45842;SDS011;31563;51.744;8.252;2022-11-15T14:09:48;1.17;;;0.50;;
45842;SDS011;31563;51.744;8.252;2022-11-15T14:12:21;7.18;;;0.75;;
45842;SDS011;31563;51.744;8.252;2022-11-15T14:14:50;9.48;;;0.90;;
45842;SDS011;31563;51.744;8.252;2022-11-15T14:17:20;4.40;;;0.90;;
45842;SDS011;31563;51.744;8.252;2022-11-15T14:20:01;4.90;;;1.00;;
45842;SDS011;31563;51.744;8.252;2022-11-15T14:22:50;2.15;;;0.60;;
45842;SDS011;31563;51.744;8.252;2022-11-15T14:25:19;1.73;;;0.60;;
45842;SDS011;31563;51.744;8.252;2022-11-15T14:28:07;5.22;;;1.00;;
45842;SDS011;31563;51.744;8.252;2022-11-15T14:30:55;1.30;;;0.57;;
45842;SDS011;31563;51.744;8.252;2022-11-15T14:33:25;2.85;;;0.60;;
45842;SDS011;31563;51.744;8.252;2022-11-15T14:36:01;2.38;;;0.50;;
45842;SDS011;31563;51.744;8.252;2022-11-15T14:38:31;5.93;;;0.57;;
45842;SDS011;31563;51.744;8.252;2022-11-15T14:41:01;3.53;;;0.50;;
45842;SDS011;31563;51.744;8.252;2022-11-15T14:43:29;3.75;;;0.70;;
45842;SDS011;31563;51.744;8.252;2022-11-15T14:45:57;4.53;;;0.50;;
45842;SDS011;31563;51.744;8.252;2022-11-15T14:48:26;2.67;;;0.90;;
45842;SDS011;31563;51.744;8.252;2022-11-15T14:50:55;2.17;;;0.50;;
45842;SDS011;31563;51.744;8.252;2022-11-15T14:53:25;4.43;;;0.60;;
45842;SDS011;31563;51.744;8.252;2022-11-15T14:55:53;7.20;;;0.85;;
45842;SDS011;31563;51.744;8.252;2022-11-15T14:58:21;4.28;;;0.73;;
45842;SDS011;31563;51.744;8.252;2022-11-15T15:00:49;3.55;;;0.77;;
45842;SDS011;31563;51.744;8.252;2022-11-15T15:03:18;3.40;;;0.73;;
45842;SDS011;31563;51.744;8.252;2022-11-15T15:05:46;3.03;;;0.65;;
45842;SDS011;31563;51.744;8.252;2022-11-15T15:08:15;3.00;;;0.60;;
45842;SDS011;31563;51.744;8.252;2022-11-15T15:10:44;1.90;;;0.82;;
45842;SDS011;31563;51.744;8.252;2022-11-15T15:13:15;4.10;;;0.60;;
45842;SDS011;31563;51.744;8.252;2022-11-15T15:15:45;2.17;;;0.80;;
45842;SDS011;31563;51.744;8.252;2022-11-15T15:18:15;5.13;;;1.05;;
45842;SDS011;31563;51.744;8.252;2022-11-15T15:20:47;1.33;;;0.60;;
45842;SDS011;31563;51.744;8.252;2022-11-15T15:23:22;3.65;;;0.75;;
45842;SDS011;31563;51.744;8.252;2022-11-15T15:25:57;3.28;;;0.65;;
45842;SDS011;31563;51.744;8.252;2022-11-15T15:28:26;3.00;;;0.80;;
45842;SDS011;31563;51.744;8.252;2022-11-15T15:30:59;4.53;;;0.70;;
45842;SDS011;31563;51.744;8.252;2022-11-15T15:33:28;4.05;;;0.90;;
45842;SDS011;31563;51.744;8.252;2022-11-15T15:35:56;4.50;;;1.10;;
45842;SDS011;31563;51.744;8.252;2022-11-15T15:38:27;3.83;;;0.90;;
45842;SDS011;31563;51.744;8.252;2022-11-15T15:40:56;4.00;;;1.00;;
45842;SDS011;31563;51.744;8.252;2022-11-15T15:43:25;3.40;;;0.50;;
45842;SDS011;31563;51.744;8.252;2022-11-15T15:45:54;8.32;;;1.27;;
45842;SDS011;31563;51.744;8.252;2022-11-15T15:48:22;3.25;;;0.90;;
45842;SDS011;31563;51.744;8.252;2022-11-15T15:50:50;3.40;;;0.90;;
45842;SDS011;31563;51.744;8.252;2022-11-15T15:53:18;3.88;;;1.00;;